Time;durP1;ratioP1;P1;durP2;ratioP2;P2;SDS_P1;SDS_P2;PMS_P1;PMS_P2;Temp;Humidity;BMP_temperature;BMP_pressure;BME280_temperature;BME280_humidity;BME280_pressure;Samples;Min_cycle;Max_cycle;Signal;HPM_P1;HPM_P2
2022/05/17 00:00:36;;;;;;;;;;;;;;;;;;5146130;27;19933;-63
2022/05/17 00:03:02;;;;;;;;;;;;;;;;;;5147781;27;19919;-62
2022/05/17 00:05:28;;;;;;;;;;;;;;;;;;5147971;27;19966;-63
2022/05/17 00:07:54;;;;;;;;;;;;;;;;;;5147723;27;19930;-63
2022/05/17 00:10:21;;;;;;;;;;;;;;;;;;5146128;27;19919;-63
2022/05/17 00:12:47;;;;;;;;;;;;;;;;;;5129189;27;19923;-63
2022/05/17 00:15:13;;;;;;;;;;;;;;;;;;5147871;27;19942;-62
2022/05/17 00:17:39;;;;;;;;;;;;;;;;;;5147576;27;20374;-63
2022/05/17 00:20:05;;;;;;;;;;;;;;;;;;5147617;27;19952;-63
2022/05/17 00:22:31;;;;;;;;;;;;;;;;;;5146032;27;19973;-63
2022/05/17 00:24:57;;;;;;;;;;;;;;;;;;5147696;27;19919;-62
2022/05/17 00:27:23;;;;;;;;;;;;;;;;;;5147324;27;19926;-63
2022/05/17 00:29:50;;;;;;;;;;;;;;;;;;5147210;27;20263;-63
2022/05/17 00:32:16;;;;;;;;;;;;;;;;;;5145731;27;19931;-63
2022/05/17 00:34:46;;;;;;;;;;;;;;;;;;5147147;27;19920;-62
2022/05/17 00:37:12;;;;;;;;;;;;;;;;;;5147309;27;19972;-63
2022/05/17 00:39:38;;;;;;;;;;;;;;;;;;5147111;27;19923;-62
2022/05/17 00:42:04;;;;;;;;;;;;;;;;;;5126874;27;19925;-62
2022/05/17 00:44:42;;;;;;;;;;;;;;;;;;5147043;27;19938;-63
2022/05/17 00:47:08;;;;;;;;;;;;;;;;;;5147378;27;19919;-62
2022/05/17 00:49:34;;;;;;;;;;;;;;;;;;5146843;27;19937;-63
2022/05/17 00:52:00;;;;;;;;;;;;;;;;;;5126966;27;19955;-63
2022/05/17 00:54:26;;;;;;;;;;;;;;;;;;5146847;27;19966;-62
2022/05/17 00:56:52;;;;;;;;;;;;;;;;;;5134987;27;19926;-62
2022/05/17 00:59:18;;;;;;;;;;;;;;;;;;5126162;28;19919;-63
2022/05/17 01:01:44;;;;;;;;;;;;;;;;;;5136450;27;19919;-62
2022/05/17 01:04:10;;;;;;;;;;;;;;;;;;5127275;28;19959;-63
2022/05/17 01:06:36;;;;;;;;;;;;;;;;;;5146957;27;19959;-63
2022/05/17 01:09:02;;;;;;;;;;;;;;;;;;5139320;27;19923;-63
2022/05/17 01:11:28;;;;;;;;;;;;;;;;;;5122341;27;19927;-63
2022/05/17 01:16:40;;;;;;;;;;;;;;;;;;5146493;27;19926;-63
2022/05/17 01:19:05;;;;;;;;;;;;;;;;;;5146559;27;19930;-62
2022/05/17 01:21:32;;;;;;;;;;;;;;;;;;5145023;27;19919;-63
2022/05/17 01:23:58;;;;;;;;;;;;;;;;;;5146400;27;19923;-63
2022/05/17 01:26:24;;;;;;;;;;;;;;;;;;5145065;27;19991;-63
2022/05/17 01:28:50;;;;;;;;;;;;;;;;;;5146287;27;19962;-62
2022/05/17 01:31:16;;;;;;;;;;;;;;;;;;5144657;27;19923;-62
2022/05/17 01:33:42;;;;;;;;;;;;;;;;;;5146041;27;19969;-62
2022/05/17 01:36:07;;;;;;;;;;;;;;;;;;5146296;27;19927;-63
2022/05/17 01:38:33;;;;;;;;;;;;;;;;;;5146204;27;19955;-62
2022/05/17 01:40:59;;;;;;;;;;;;;;;;;;5144472;28;19919;-62
2022/05/17 01:43:25;;;;;;;;;;;;;;;;;;5146248;28;19975;-63
2022/05/17 01:45:51;;;;;;;;;;;;;;;;;;5146281;28;19919;-63
2022/05/17 01:48:17;;;;;;;;;;;;;;;;;;5146081;28;19919;-62
2022/05/17 01:50:43;;;;;;;;;;;;;;;;;;5143984;28;19926;-62
2022/05/17 01:53:09;;;;;;;;;;;;;;;;;;5146072;28;19920;-61
2022/05/17 01:55:35;;;;;;;;;;;;;;;;;;5136507;28;19920;-63
2022/05/17 01:58:01;;;;;;;;;;;;;;;;;;5108724;28;19934;-62
2022/05/17 02:00:27;;;;;;;;;;;;;;;;;;5146189;28;19919;-62
2022/05/17 02:02:53;;;;;;;;;;;;;;;;;;5145876;28;19919;-63
2022/05/17 02:05:19;;;;;;;;;;;;;;;;;;5146096;28;20018;-62
2022/05/17 02:07:45;;;;;;;;;;;;;;;;;;5143711;28;19927;-62
2022/05/17 02:10:11;;;;;;;;;;;;;;;;;;5145953;28;19919;-62
2022/05/17 02:12:37;;;;;;;;;;;;;;;;;;5145873;28;20287;-62
2022/05/17 02:15:03;;;;;;;;;;;;;;;;;;5127597;28;19919;-62
2022/05/17 02:17:29;;;;;;;;;;;;;;;;;;5145787;28;19919;-62
2022/05/17 02:19:55;;;;;;;;;;;;;;;;;;5144545;27;19919;-62
2022/05/17 02:22:22;;;;;;;;;;;;;;;;;;5149358;27;19919;-63
2022/05/17 02:24:48;;;;;;;;;;;;;;;;;;5149811;27;20010;-62
2022/05/17 02:27:14;;;;;;;;;;;;;;;;;;5149602;27;19920;-62
2022/05/17 02:29:40;;;;;;;;;;;;;;;;;;5148109;27;20435;-62
2022/05/17 02:32:06;;;;;;;;;;;;;;;;;;5149680;27;19945;-63
2022/05/17 02:34:32;;;;;;;;;;;;;;;;;;5149794;27;19919;-62
2022/05/17 02:36:58;;;;;;;;;;;;;;;;;;5149627;27;20356;-62
2022/05/17 02:39:24;;;;;;;;;;;;;;;;;;5143738;27;19987;-62
2022/05/17 02:41:50;;;;;;;;;;;;;;;;;;5149419;27;20021;-63
2022/05/17 02:44:16;;;;;;;;;;;;;;;;;;5149480;27;19994;-62
2022/05/17 02:46:42;;;;;;;;;;;;;;;;;;5149237;27;19919;-62
2022/05/17 02:49:08;;;;;;;;;;;;;;;;;;5146419;27;20475;-63
2022/05/17 02:51:34;;;;;;;;;;;;;;;;;;5149477;27;20177;-62
2022/05/17 02:54:00;;;;;;;;;;;;;;;;;;5149429;27;19923;-61
2022/05/17 02:56:26;;;;;;;;;;;;;;;;;;5149013;27;19944;-62
2022/05/17 02:58:53;;;;;;;;;;;;;;;;;;5147393;27;19919;-63
2022/05/17 03:01:19;;;;;;;;;;;;;;;;;;5149042;27;19919;-64
2022/05/17 03:03:46;;;;;;;;;;;;;;;;;;5149103;27;19926;-62
2022/05/17 03:06:12;;;;;;;;;;;;;;;;;;5149029;27;19919;-63
2022/05/17 03:08:38;;;;;;;;;;;;;;;;;;5144928;27;19994;-62
2022/05/17 03:11:05;;;;;;;;;;;;;;;;;;5148965;27;19940;-62
2022/05/17 03:13:31;;;;;;;;;;;;;;;;;;5130432;27;19919;-62
2022/05/17 03:15:57;;;;;;;;;;;;;;;;;;5147411;27;20006;-62
2022/05/17 03:18:23;;;;;;;;;;;;;;;;;;5147257;27;19926;-62
2022/05/17 03:20:49;;;;;;;;;;;;;;;;;;5128205;28;20417;-63
2022/05/17 03:23:15;;;;;;;;;;;;;;;;;;5128196;28;20056;-63
2022/05/17 03:25:41;;;;;;;;;;;;;;;;;;5109685;28;19940;-63
2022/05/17 03:28:07;;;;;;;;;;;;;;;;;;5127839;28;19919;-62
2022/05/17 03:30:32;;;;;;;;;;;;;;;;;;5145727;27;19920;-62
2022/05/17 03:32:58;;;;;;;;;;;;;;;;;;5148039;27;19945;-61
2022/05/17 03:35:24;;;;;;;;;;;;;;;;;;5130014;27;19940;-62
2022/05/17 03:37:50;;;;;;;;;;;;;;;;;;5148299;27;19926;-61
2022/05/17 03:40:16;;;;;;;;;;;;;;;;;;5146731;27;19920;-63
2022/05/17 03:42:42;;;;;;;;;;;;;;;;;;5148221;27;19919;-62
2022/05/17 03:45:08;;;;;;;;;;;;;;;;;;5148108;27;20422;-62
2022/05/17 03:47:34;;;;;;;;;;;;;;;;;;5148312;27;19919;-62
2022/05/17 03:50:00;;;;;;;;;;;;;;;;;;5145848;27;19919;-62
2022/05/17 03:52:26;;;;;;;;;;;;;;;;;;5148186;27;19984;-62
2022/05/17 03:54:52;;;;;;;;;;;;;;;;;;5129872;27;19927;-63
2022/05/17 03:57:18;;;;;;;;;;;;;;;;;;5147552;27;20408;-62
2022/05/17 03:59:44;;;;;;;;;;;;;;;;;;5128017;27;20007;-63
2022/05/17 04:02:10;;;;;;;;;;;;;;;;;;5148104;27;19930;-63
2022/05/17 04:04:36;;;;;;;;;;;;;;;;;;5147866;27;20322;-63
2022/05/17 04:07:02;;;;;;;;;;;;;;;;;;5129240;27;19994;-63
2022/05/17 04:09:28;;;;;;;;;;;;;;;;;;5137998;27;19919;-63
2022/05/17 04:11:54;;;;;;;;;;;;;;;;;;5127051;28;19941;-62
2022/05/17 04:14:20;;;;;;;;;;;;;;;;;;5127031;28;20110;-62
2022/05/17 04:16:46;;;;;;;;;;;;;;;;;;5126899;28;20419;-62
2022/05/17 04:19:15;;;;;;;;;;;;;;;;;;5130732;27;19984;-63
2022/05/17 04:21:41;;;;;;;;;;;;;;;;;;5147459;27;19926;-62
2022/05/17 04:24:07;;;;;;;;;;;;;;;;;;5129123;27;19941;-62
2022/05/17 04:26:33;;;;;;;;;;;;;;;;;;5147182;27;19923;-62
2022/05/17 04:28:59;;;;;;;;;;;;;;;;;;5145838;27;19979;-62
2022/05/17 04:31:25;;;;;;;;;;;;;;;;;;5147340;27;19919;-62
2022/05/17 04:33:51;;;;;;;;;;;;;;;;;;5147353;27;19929;-62
2022/05/17 04:36:17;;;;;;;;;;;;;;;;;;5147309;27;19927;-62
2022/05/17 04:38:43;;;;;;;;;;;;;;;;;;5145699;27;19919;-62
2022/05/17 04:41:09;;;;;;;;;;;;;;;;;;5147079;27;19926;-61
2022/05/17 04:43:35;;;;;;;;;;;;;;;;;;5146428;27;19919;-62
2022/05/17 04:46:01;;;;;;;;;;;;;;;;;;5146936;27;19971;-63
2022/05/17 04:48:27;;;;;;;;;;;;;;;;;;5147162;27;19978;-62
2022/05/17 04:50:53;;;;;;;;;;;;;;;;;;5143617;27;19940;-62
2022/05/17 04:53:19;;;;;;;;;;;;;;;;;;5147042;27;19919;-61
2022/05/17 04:55:45;;;;;;;;;;;;;;;;;;5105706;27;19931;-63
2022/05/17 04:58:11;;;;;;;;;;;;;;;;;;5124072;27;20692;-61
2022/05/17 05:00:37;;;;;;;;;;;;;;;;;;5129413;27;19919;-63
2022/05/17 05:03:03;;;;;;;;;;;;;;;;;;5121253;27;19967;-62
2022/05/17 05:05:29;;;;;;;;;;;;;;;;;;5122070;27;20062;-62
2022/05/17 05:07:55;;;;;;;;;;;;;;;;;;5114889;27;19926;-62
2022/05/17 05:10:21;;;;;;;;;;;;;;;;;;5134226;27;19920;-64
2022/05/17 05:12:47;;;;;;;;;;;;;;;;;;5122167;27;20341;-62
2022/05/17 05:15:13;;;;;;;;;;;;;;;;;;5143970;27;19926;-62
2022/05/17 05:17:39;;;;;;;;;;;;;;;;;;5119259;28;19968;-62
2022/05/17 05:20:05;;;;;;;;;;;;;;;;;;5135066;27;20298;-62
2022/05/17 05:22:31;;;;;;;;;;;;;;;;;;5144824;27;19926;-63
2022/05/17 05:24:57;;;;;;;;;;;;;;;;;;5130469;27;19920;-63
2022/05/17 05:27:23;;;;;;;;;;;;;;;;;;5125604;27;19966;-63
2022/05/17 05:29:49;;;;;;;;;;;;;;;;;;5121811;27;19945;-62
2022/05/17 05:32:16;;;;;;;;;;;;;;;;;;5122224;27;19926;-62
2022/05/17 05:34:42;;;;;;;;;;;;;;;;;;5118577;28;19924;-62
2022/05/17 05:37:08;;;;;;;;;;;;;;;;;;5116281;28;19942;-63
2022/05/17 05:39:34;;;;;;;;;;;;;;;;;;5128320;28;19929;-64
2022/05/17 05:42:00;;;;;;;;;;;;;;;;;;5125617;28;19983;-63
2022/05/17 05:44:26;;;;;;;;;;;;;;;;;;5125381;28;19991;-62
2022/05/17 05:46:52;;;;;;;;;;;;;;;;;;5125760;28;19919;-62
2022/05/17 05:49:18;;;;;;;;;;;;;;;;;;5125535;28;19972;-62
2022/05/17 05:51:46;;;;;;;;;;;;;;;;;;5125542;28;19966;-63
2022/05/17 05:54:12;;;;;;;;;;;;;;;;;;5125773;28;19919;-63
2022/05/17 05:56:38;;;;;;;;;;;;;;;;;;5130793;27;19924;-66
2022/05/17 05:59:04;;;;;;;;;;;;;;;;;;5126788;27;19984;-64
2022/05/17 06:01:30;;;;;;;;;;;;;;;;;;5129639;27;19987;-65
2022/05/17 06:03:56;;;;;;;;;;;;;;;;;;5126401;27;19923;-65
2022/05/17 06:06:22;;;;;;;;;;;;;;;;;;5136747;27;19942;-65
2022/05/17 06:08:48;;;;;;;;;;;;;;;;;;5149749;27;20371;-64
2022/05/17 06:11:15;;;;;;;;;;;;;;;;;;5136070;27;20390;-64
2022/05/17 06:13:41;;;;;;;;;;;;;;;;;;5129211;28;19983;-65
2022/05/17 06:16:08;;;;;;;;;;;;;;;;;;5129314;28;19934;-65
2022/05/17 06:18:34;;;;;;;;;;;;;;;;;;5129280;28;19919;-64
2022/05/17 06:21:00;;;;;;;;;;;;;;;;;;5129097;28;19920;-64
2022/05/17 06:23:26;;;;;;;;;;;;;;;;;;5129200;28;20040;-64
2022/05/17 06:25:52;;;;;;;;;;;;;;;;;;5121630;28;19920;-64
2022/05/17 06:28:18;;;;;;;;;;;;;;;;;;5119034;28;20452;-66
2022/05/17 06:30:44;;;;;;;;;;;;;;;;;;5108524;28;19920;-64
2022/05/17 06:33:10;;;;;;;;;;;;;;;;;;5118132;28;19920;-64
2022/05/17 06:35:37;;;;;;;;;;;;;;;;;;5108520;28;20475;-65
2022/05/17 06:38:04;;;;;;;;;;;;;;;;;;5108544;28;19927;-64
2022/05/17 06:40:30;;;;;;;;;;;;;;;;;;5108398;28;19920;-64
2022/05/17 06:42:56;;;;;;;;;;;;;;;;;;5108430;28;20007;-64
2022/05/17 06:45:22;;;;;;;;;;;;;;;;;;5108665;28;20009;-64
2022/05/17 06:47:48;;;;;;;;;;;;;;;;;;5108270;28;20043;-63
2022/05/17 06:50:14;;;;;;;;;;;;;;;;;;5119119;28;19920;-64
2022/05/17 06:52:40;;;;;;;;;;;;;;;;;;5127340;28;19927;-63
2022/05/17 06:55:06;;;;;;;;;;;;;;;;;;5128397;28;19915;-65
2022/05/17 06:57:32;;;;;;;;;;;;;;;;;;5127425;28;19919;-64
2022/05/17 06:59:58;;;;;;;;;;;;;;;;;;5127809;28;19919;-64
2022/05/17 07:02:24;;;;;;;;;;;;;;;;;;5128425;28;19926;-64
2022/05/17 07:04:50;;;;;;;;;;;;;;;;;;5128501;28;19920;-65
2022/05/17 07:07:16;;;;;;;;;;;;;;;;;;5125619;28;20208;-64
2022/05/17 07:13:07;;;;;;;;;;;;;;;;;;5126181;28;19920;-64
2022/05/17 07:15:13;;;;;;;;;;;;;;;;;;5127733;28;19920;-64
2022/05/17 07:17:39;;;;;;;;;;;;;;;;;;5128047;28;19948;-65
2022/05/17 07:20:05;;;;;;;;;;;;;;;;;;5128000;28;19920;-64
2022/05/17 07:22:31;;;;;;;;;;;;;;;;;;5109764;28;19942;-64
2022/05/17 07:24:57;;;;;;;;;;;;;;;;;;5108428;28;20003;-64
2022/05/17 07:27:23;;;;;;;;;;;;;;;;;;5127830;28;19920;-63
2022/05/17 07:29:49;;;;;;;;;;;;;;;;;;5121471;27;19920;-63
2022/05/17 07:32:15;;;;;;;;;;;;;;;;;;5121255;27;19927;-64
2022/05/17 07:34:42;;;;;;;;;;;;;;;;;;5126990;27;20447;-63
2022/05/17 07:37:08;;;;;;;;;;;;;;;;;;5121062;27;19926;-68
2022/05/17 07:39:34;;;;;;;;;;;;;;;;;;5125205;27;20018;-63
2022/05/17 07:41:59;;;;;;;;;;;;;;;;;;5124722;27;20003;-63
2022/05/17 07:44:25;;;;;;;;;;;;;;;;;;5116525;27;19995;-60
2022/05/17 07:46:51;;;;;;;;;;;;;;;;;;5133993;27;19940;-64
2022/05/17 07:49:17;;;;;;;;;;;;;;;;;;5124484;27;19923;-65
2022/05/17 07:51:43;;;;;;;;;;;;;;;;;;5126390;27;20011;-65
2022/05/17 07:54:09;;;;;;;;;;;;;;;;;;5120878;27;19925;-64
2022/05/17 07:56:36;;;;;;;;;;;;;;;;;;5125513;27;19932;-65
2022/05/17 07:59:01;;;;;;;;;;;;;;;;;;5123574;27;19931;-65
2022/05/17 08:01:27;;;;;;;;;;;;;;;;;;5117545;27;19932;-65
2022/05/17 08:03:54;;;;;;;;;;;;;;;;;;5119830;28;19937;-65
2022/05/17 08:06:20;;;;;;;;;;;;;;;;;;5116881;28;20136;-64
2022/05/17 08:08:46;;;;;;;;;;;;;;;;;;5105339;28;19935;-65
2022/05/17 08:11:12;;;;;;;;;;;;;;;;;;5125729;28;19919;-64
2022/05/17 08:13:39;;;;;;;;;;;;;;;;;;5126687;28;19926;-65
2022/05/17 08:16:05;;;;;;;;;;;;;;;;;;5126571;28;19933;-64
2022/05/17 08:18:30;;;;;;;;;;;;;;;;;;5098412;28;20018;-65
2022/05/17 08:20:57;;;;;;;;;;;;;;;;;;5126694;28;19930;-64
2022/05/17 08:23:23;;;;;;;;;;;;;;;;;;5126505;28;19920;-64
2022/05/17 08:28:33;;;;;;;;;;;;;;;;;;5126796;28;19930;-64
2022/05/17 08:30:59;;;;;;;;;;;;;;;;;;5126662;28;19919;-64
2022/05/17 08:33:26;;;;;;;;;;;;;;;;;;5124372;28;19931;-64
2022/05/17 08:35:52;;;;;;;;;;;;;;;;;;5124395;28;19919;-64
2022/05/17 08:38:18;;;;;;;;;;;;;;;;;;5107108;28;19993;-65
2022/05/17 08:40:45;;;;;;;;;;;;;;;;;;5125976;28;19931;-64
2022/05/17 08:43:11;;;;;;;;;;;;;;;;;;5123754;28;19928;-64
2022/05/17 08:45:37;;;;;;;;;;;;;;;;;;5123859;27;19928;-63
2022/05/17 08:48:04;;;;;;;;;;;;;;;;;;5126625;27;19915;-64
2022/05/17 08:50:30;;;;;;;;;;;;;;;;;;5133339;27;19926;-64
2022/05/17 08:52:56;;;;;;;;;;;;;;;;;;5124782;27;19965;-64
2022/05/17 08:55:22;;;;;;;;;;;;;;;;;;5126119;27;19995;-64
2022/05/17 08:57:48;;;;;;;;;;;;;;;;;;5118938;27;19928;-64
2022/05/17 09:00:14;;;;;;;;;;;;;;;;;;5094521;28;19929;-63
2022/05/17 09:02:40;;;;;;;;;;;;;;;;;;5130103;27;19971;-61
2022/05/17 09:05:06;;;;;;;;;;;;;;;;;;5110782;28;19946;-63
2022/05/17 09:07:32;;;;;;;;;;;;;;;;;;5108545;28;19920;-61
2022/05/17 09:09:58;;;;;;;;;;;;;;;;;;5105167;28;19927;-65
2022/05/17 09:12:24;;;;;;;;;;;;;;;;;;5122321;27;19928;-63
2022/05/17 09:14:50;;;;;;;;;;;;;;;;;;5106429;28;19928;-65
2022/05/17 09:17:16;;;;;;;;;;;;;;;;;;5126078;27;19926;-63
2022/05/17 09:19:43;;;;;;;;;;;;;;;;;;5106360;28;19927;-63
2022/05/17 09:22:10;;;;;;;;;;;;;;;;;;5127540;27;19966;-62
2022/05/17 09:24:36;;;;;;;;;;;;;;;;;;5107614;28;19924;-63
2022/05/17 09:27:02;;;;;;;;;;;;;;;;;;5124330;27;19927;-68
2022/05/17 09:29:29;;;;;;;;;;;;;;;;;;5123930;27;20400;-64
2022/05/17 09:31:55;;;;;;;;;;;;;;;;;;5116410;28;19920;-60
2022/05/17 09:34:21;;;;;;;;;;;;;;;;;;5107332;28;19920;-61
2022/05/17 09:36:47;;;;;;;;;;;;;;;;;;5104167;28;19931;-61
2022/05/17 09:39:13;;;;;;;;;;;;;;;;;;5105136;28;19928;-61
2022/05/17 09:41:39;;;;;;;;;;;;;;;;;;5119907;28;19920;-61
2022/05/17 09:44:05;;;;;;;;;;;;;;;;;;5109366;28;19935;-61
2022/05/17 09:46:31;;;;;;;;;;;;;;;;;;5106275;28;20078;-73
2022/05/17 09:54:26;;;;;;;;;;;;;;;;;;5088205;28;19983;-70
2022/05/17 09:56:52;;;;;;;;;;;;;;;;;;5107392;28;19939;-69
2022/05/17 09:59:18;;;;;;;;;;;;;;;;;;5105690;28;19920;-62
2022/05/17 10:01:44;;;;;;;;;;;;;;;;;;5108795;28;19939;-61
2022/05/17 10:04:10;;;;;;;;;;;;;;;;;;5107600;28;19920;-61
2022/05/17 10:06:36;;;;;;;;;;;;;;;;;;5106557;28;19920;-62
2022/05/17 10:09:02;;;;;;;;;;;;;;;;;;5107566;28;19935;-70
2022/05/17 10:11:28;;;;;;;;;;;;;;;;;;5126187;28;19939;-62
2022/05/17 10:13:54;;;;;;;;;;;;;;;;;;5106815;28;19920;-61
2022/05/17 10:16:20;;;;;;;;;;;;;;;;;;5107916;28;19966;-60
2022/05/17 10:18:46;;;;;;;;;;;;;;;;;;5106277;28;19967;-60
2022/05/17 10:21:12;;;;;;;;;;;;;;;;;;5105425;28;20451;-62
2022/05/17 10:23:38;;;;;;;;;;;;;;;;;;5108729;28;19986;-61
2022/05/17 10:26:05;;;;;;;;;;;;;;;;;;5106207;28;19987;-62
2022/05/17 10:28:32;;;;;;;;;;;;;;;;;;5100075;28;19928;-66
2022/05/17 10:30:58;;;;;;;;;;;;;;;;;;5118214;28;19927;-63
2022/05/17 10:33:24;;;;;;;;;;;;;;;;;;5103913;28;19920;-63
2022/05/17 10:35:50;;;;;;;;;;;;;;;;;;5103266;28;19920;-65
2022/05/17 10:38:16;;;;;;;;;;;;;;;;;;5095746;28;19931;-67
2022/05/17 10:40:46;;;;;;;;;;;;;;;;;;5090091;28;19924;-68
2022/05/17 10:43:12;;;;;;;;;;;;;;;;;;5084926;28;19920;-69
2022/05/17 10:45:38;;;;;;;;;;;;;;;;;;5099062;28;19924;-65
2022/05/17 10:48:04;;;;;;;;;;;;;;;;;;5079870;28;19939;-68
2022/05/17 10:50:30;;;;;;;;;;;;;;;;;;5107854;28;19920;-70
2022/05/17 10:52:56;;;;;;;;;;;;;;;;;;5118854;27;19931;-70
2022/05/17 10:55:22;;;;;;;;;;;;;;;;;;5097068;28;19916;-60
2022/05/17 10:57:48;;;;;;;;;;;;;;;;;;5107600;28;19920;-60
2022/05/17 11:00:14;;;;;;;;;;;;;;;;;;5107462;28;19920;-60
2022/05/17 11:02:40;;;;;;;;;;;;;;;;;;5100095;28;20200;-60
2022/05/17 11:05:07;;;;;;;;;;;;;;;;;;5107742;28;19935;-60
2022/05/17 11:07:33;;;;;;;;;;;;;;;;;;5099922;28;19923;-60
2022/05/17 11:09:59;;;;;;;;;;;;;;;;;;5099195;28;19920;-60
2022/05/17 11:12:25;;;;;;;;;;;;;;;;;;5106681;28;19970;-60
2022/05/17 11:14:52;;;;;;;;;;;;;;;;;;5107865;28;19959;-59
2022/05/17 11:17:19;;;;;;;;;;;;;;;;;;5105727;28;19930;-60
2022/05/17 11:19:45;;;;;;;;;;;;;;;;;;5089379;28;20007;-60
2022/05/17 11:22:11;;;;;;;;;;;;;;;;;;5107572;28;20305;-60
2022/05/17 11:24:37;;;;;;;;;;;;;;;;;;5106862;28;19920;-59
2022/05/17 11:27:03;;;;;;;;;;;;;;;;;;5107526;28;19927;-60
2022/05/17 11:29:29;;;;;;;;;;;;;;;;;;5099109;28;19920;-60
2022/05/17 11:31:56;;;;;;;;;;;;;;;;;;5099382;28;19928;-62
2022/05/17 11:34:22;;;;;;;;;;;;;;;;;;5105441;28;19930;-62
2022/05/17 11:36:48;;;;;;;;;;;;;;;;;;5102761;28;19924;-61
2022/05/17 11:39:14;;;;;;;;;;;;;;;;;;5105713;28;20003;-62
2022/05/17 11:41:40;;;;;;;;;;;;;;;;;;5106695;28;19967;-61
2022/05/17 11:44:06;;;;;;;;;;;;;;;;;;5107218;28;19927;-61
2022/05/17 11:46:32;;;;;;;;;;;;;;;;;;5115675;28;19942;-61
2022/05/17 11:48:58;;;;;;;;;;;;;;;;;;5107808;28;19920;-60
2022/05/17 11:51:24;;;;;;;;;;;;;;;;;;5110142;28;19997;-61
2022/05/17 11:53:50;;;;;;;;;;;;;;;;;;5106577;28;19924;-63
2022/05/17 11:56:16;;;;;;;;;;;;;;;;;;5104185;28;19924;-62
2022/05/17 11:58:42;;;;;;;;;;;;;;;;;;5109234;28;20002;-64
2022/05/17 12:01:08;;;;;;;;;;;;;;;;;;5106293;28;19988;-65
2022/05/17 12:03:34;;;;;;;;;;;;;;;;;;5104314;28;19951;-65
2022/05/17 12:06:00;;;;;;;;;;;;;;;;;;5098315;28;20005;-66
2022/05/17 12:08:26;;;;;;;;;;;;;;;;;;5106277;28;19951;-65
2022/05/17 12:10:59;;;;;;;;;;;;;;;;;;5102384;28;19927;-65
2022/05/17 12:13:25;;;;;;;;;;;;;;;;;;5091510;28;19981;-66
2022/05/17 12:15:51;;;;;;;;;;;;;;;;;;5096146;28;19920;-66
2022/05/17 12:18:17;;;;;;;;;;;;;;;;;;5102870;28;19985;-66
2022/05/17 12:20:43;;;;;;;;;;;;;;;;;;5085495;28;19928;-65
2022/05/17 12:23:09;;;;;;;;;;;;;;;;;;5109764;28;19928;-65
2022/05/17 12:25:35;;;;;;;;;;;;;;;;;;5100553;28;19920;-65
2022/05/17 12:28:01;;;;;;;;;;;;;;;;;;5104810;28;19920;-65
2022/05/17 12:33:12;;;;;;;;;;;;;;;;;;5085112;28;19928;-65
2022/05/17 12:35:38;;;;;;;;;;;;;;;;;;5102870;28;19965;-65
2022/05/17 12:43:02;;;;;;;;;;;;;;;;;;5105861;28;20072;-65
2022/05/17 12:43:38;;;;;;;;;;;;;;;;;;5104731;28;19924;-65
2022/05/17 12:46:04;;;;;;;;;;;;;;;;;;5106209;28;19920;-65
2022/05/17 12:48:30;;;;;;;;;;;;;;;;;;5114374;28;19934;-65
2022/05/17 12:50:56;;;;;;;;;;;;;;;;;;5105235;28;19986;-65
2022/05/17 12:53:22;;;;;;;;;;;;;;;;;;5098696;28;19920;-65
2022/05/17 12:55:48;;;;;;;;;;;;;;;;;;5097102;28;20326;-65
2022/05/17 12:58:14;;;;;;;;;;;;;;;;;;5105320;28;19923;-66
2022/05/17 13:00:40;;;;;;;;;;;;;;;;;;5108385;28;19924;-65
2022/05/17 13:03:06;;;;;;;;;;;;;;;;;;5112114;28;20273;-64
2022/05/17 13:05:32;;;;;;;;;;;;;;;;;;5094371;28;20061;-65
2022/05/17 13:07:58;;;;;;;;;;;;;;;;;;5093182;28;19920;-65
2022/05/17 13:10:25;;;;;;;;;;;;;;;;;;5095684;28;19984;-65
2022/05/17 13:12:51;;;;;;;;;;;;;;;;;;5098652;28;19923;-64
2022/05/17 13:15:17;;;;;;;;;;;;;;;;;;5103920;28;19920;-63
2022/05/17 13:17:43;;;;;;;;;;;;;;;;;;5102004;28;20320;-65
2022/05/17 13:20:10;;;;;;;;;;;;;;;;;;5093416;28;19935;-66
2022/05/17 13:22:36;;;;;;;;;;;;;;;;;;5093968;28;19924;-65
2022/05/17 13:25:02;;;;;;;;;;;;;;;;;;5098546;28;19959;-64
2022/05/17 13:27:28;;;;;;;;;;;;;;;;;;5103962;28;19920;-66
2022/05/17 13:29:54;;;;;;;;;;;;;;;;;;5101405;28;19920;-65
2022/05/17 13:32:20;;;;;;;;;;;;;;;;;;5100050;28;19924;-65
2022/05/17 13:34:46;;;;;;;;;;;;;;;;;;5104486;28;19933;-65
2022/05/17 13:37:12;;;;;;;;;;;;;;;;;;5102986;28;19969;-65
2022/05/17 13:39:38;;;;;;;;;;;;;;;;;;5112502;28;19928;-66
2022/05/17 13:42:04;;;;;;;;;;;;;;;;;;5105963;28;19927;-65
2022/05/17 13:44:30;;;;;;;;;;;;;;;;;;5103863;28;19950;-64
2022/05/17 13:46:56;;;;;;;;;;;;;;;;;;5111915;28;19924;-65
2022/05/17 13:49:22;;;;;;;;;;;;;;;;;;5099413;28;19927;-65
2022/05/17 13:51:48;;;;;;;;;;;;;;;;;;5080926;28;20166;-65
2022/05/17 13:54:14;;;;;;;;;;;;;;;;;;5100328;28;19923;-65
2022/05/17 13:56:41;;;;;;;;;;;;;;;;;;5099620;28;19921;-65
2022/05/17 13:59:06;;;;;;;;;;;;;;;;;;5098610;28;20035;-65
2022/05/17 14:01:32;;;;;;;;;;;;;;;;;;5100561;28;19963;-65
2022/05/17 14:03:58;;;;;;;;;;;;;;;;;;5089109;28;20613;-65
2022/05/17 14:06:25;;;;;;;;;;;;;;;;;;5102786;28;19924;-66
2022/05/17 14:11:51;;;;;;;;;;;;;;;;;;5098743;28;19928;-65
2022/05/17 14:14:17;;;;;;;;;;;;;;;;;;5105063;28;19931;-65
2022/05/17 14:16:43;;;;;;;;;;;;;;;;;;5099099;28;19924;-65
2022/05/17 14:19:10;;;;;;;;;;;;;;;;;;5106072;28;19955;-65
2022/05/17 14:21:36;;;;;;;;;;;;;;;;;;5114991;28;19923;-65
2022/05/17 14:24:02;;;;;;;;;;;;;;;;;;5103525;28;19941;-64
2022/05/17 14:26:28;;;;;;;;;;;;;;;;;;5089543;28;19941;-65
2022/05/17 14:28:54;;;;;;;;;;;;;;;;;;5107952;28;19991;-65
2022/05/17 14:31:20;;;;;;;;;;;;;;;;;;5104097;28;20010;-65
2022/05/17 14:33:46;;;;;;;;;;;;;;;;;;5102978;28;19967;-65
2022/05/17 14:36:12;;;;;;;;;;;;;;;;;;5102024;28;19924;-65
2022/05/17 14:38:38;;;;;;;;;;;;;;;;;;5104703;28;19924;-64
2022/05/17 14:41:04;;;;;;;;;;;;;;;;;;5105295;28;19979;-65
2022/05/17 14:43:30;;;;;;;;;;;;;;;;;;5117172;28;19920;-65
2022/05/17 14:45:57;;;;;;;;;;;;;;;;;;5107655;28;19931;-65
2022/05/17 14:48:23;;;;;;;;;;;;;;;;;;5101937;28;20302;-65
2022/05/17 14:50:49;;;;;;;;;;;;;;;;;;5090379;28;20003;-65
2022/05/17 14:53:15;;;;;;;;;;;;;;;;;;5103192;28;19965;-66
2022/05/17 14:55:41;;;;;;;;;;;;;;;;;;5097525;28;20409;-65
2022/05/17 14:58:07;;;;;;;;;;;;;;;;;;5102632;28;19927;-64
2022/05/17 15:00:33;;;;;;;;;;;;;;;;;;5090731;28;19924;-65
2022/05/17 15:02:59;;;;;;;;;;;;;;;;;;5087053;28;19966;-64
2022/05/17 15:05:25;;;;;;;;;;;;;;;;;;5078471;28;19921;-63
2022/05/17 15:07:52;;;;;;;;;;;;;;;;;;5095134;28;19931;-64
2022/05/17 15:10:18;;;;;;;;;;;;;;;;;;5101857;28;19921;-64
2022/05/17 15:12:44;;;;;;;;;;;;;;;;;;5102333;28;19981;-64
2022/05/17 15:15:10;;;;;;;;;;;;;;;;;;5086698;28;19921;-64
2022/05/17 15:17:36;;;;;;;;;;;;;;;;;;5093421;28;19931;-64
2022/05/17 15:20:02;;;;;;;;;;;;;;;;;;5091243;28;19920;-65
2022/05/17 15:22:28;;;;;;;;;;;;;;;;;;5090757;28;19925;-65
2022/05/17 15:24:56;;;;;;;;;;;;;;;;;;5101497;28;19943;-66
2022/05/17 15:27:22;;;;;;;;;;;;;;;;;;5101390;28;19920;-66
2022/05/17 15:29:48;;;;;;;;;;;;;;;;;;5091557;28;19931;-64
2022/05/17 15:32:15;;;;;;;;;;;;;;;;;;5094510;28;19919;-65
2022/05/17 15:34:41;;;;;;;;;;;;;;;;;;5098048;28;20327;-65
2022/05/17 15:37:07;;;;;;;;;;;;;;;;;;5104028;28;19928;-65
2022/05/17 15:39:33;;;;;;;;;;;;;;;;;;5101161;28;19934;-65
2022/05/17 15:41:59;;;;;;;;;;;;;;;;;;5105199;28;20295;-65
2022/05/17 15:44:25;;;;;;;;;;;;;;;;;;5107901;28;19920;-65
2022/05/17 15:55:05;;;;;;;;;;;;;;;;;;5103129;28;19920;-65
2022/05/17 15:57:33;;;;;;;;;;;;;;;;;;5098475;28;19920;-65
2022/05/17 15:59:59;;;;;;;;;;;;;;;;;;5101921;28;19920;-65
2022/05/17 16:02:25;;;;;;;;;;;;;;;;;;5100714;28;19930;-65
2022/05/17 16:05:02;;;;;;;;;;;;;;;;;;5100959;28;19920;-64
2022/05/17 16:10:13;;;;;;;;;;;;;;;;;;5102611;28;20015;-65
2022/05/17 16:12:39;;;;;;;;;;;;;;;;;;5125719;28;20275;-65
2022/05/17 16:15:05;;;;;;;;;;;;;;;;;;5117360;28;20028;-66
2022/05/17 16:17:31;;;;;;;;;;;;;;;;;;5110098;28;19920;-65
2022/05/17 16:19:57;;;;;;;;;;;;;;;;;;5088716;28;19956;-66
2022/05/17 16:22:24;;;;;;;;;;;;;;;;;;5089727;28;20076;-65
2022/05/17 16:24:50;;;;;;;;;;;;;;;;;;5098432;28;20029;-65
2022/05/17 16:27:16;;;;;;;;;;;;;;;;;;5112974;28;19924;-64
2022/05/17 16:29:43;;;;;;;;;;;;;;;;;;5104690;28;19927;-64
2022/05/17 16:32:09;;;;;;;;;;;;;;;;;;5105612;28;19973;-65
2022/05/17 16:34:36;;;;;;;;;;;;;;;;;;5111654;28;19924;-65
2022/05/17 16:37:02;;;;;;;;;;;;;;;;;;5082646;28;19988;-65
2022/05/17 16:39:28;;;;;;;;;;;;;;;;;;5112996;28;19927;-65
2022/05/17 16:41:55;;;;;;;;;;;;;;;;;;5091158;28;19927;-64
2022/05/17 16:44:21;;;;;;;;;;;;;;;;;;5103326;28;19927;-65
2022/05/17 16:46:47;;;;;;;;;;;;;;;;;;5121755;28;19920;-65
2022/05/17 16:49:13;;;;;;;;;;;;;;;;;;5098018;28;19935;-65
2022/05/17 16:51:39;;;;;;;;;;;;;;;;;;5081176;28;19920;-64
2022/05/17 16:54:05;;;;;;;;;;;;;;;;;;5100607;28;19924;-63
2022/05/17 16:56:31;;;;;;;;;;;;;;;;;;5116632;28;19951;-65
2022/05/17 16:58:57;;;;;;;;;;;;;;;;;;5104801;28;19975;-65
2022/05/17 17:01:23;;;;;;;;;;;;;;;;;;5107325;28;20015;-64
2022/05/17 17:03:49;;;;;;;;;;;;;;;;;;5103738;28;19927;-65
2022/05/17 17:06:15;;;;;;;;;;;;;;;;;;5104069;28;19924;-66
2022/05/17 17:08:41;;;;;;;;;;;;;;;;;;5105284;28;19973;-67
2022/05/17 17:11:07;;;;;;;;;;;;;;;;;;5105008;28;20379;-66